TS53 weather

Flying Cap Valley Airport
Grapevine, Texas, United States

Public forecast

Using degrees Fahrenheit for public forecast. Weather courtesy of forecast.io.

METAR (pilot weather report)

Closest report is Dallas Fort Worth International Airport, 5.5 nm (10.1 km) ESE. Retrieved 2019/03/24 03:53 UTC (37 minutes ago):

KDFW 240353Z 18013KT 10SM SCT037 BKN250 19/14 A3000 RMK AO2 SLP153 T01890144

TAF (pilot weather forecast)

Forecast is more than 12 hours old.

Closest forecast is Dallas Fort Worth International Airport, 5.5 nm (10.1 km) ESE. Retrieved 2019/03/23 00:27 UTC (1 day ago):

TAF KDFW 232325Z 2400/2506 18015KT P6SM VCSH BKN035 FM240500 18015KT P6SM BKN020 FM241700 21015KT P6SM BKN030 FM242000 21014KT P6SM SCT040 FM250500 35010KT P6SM BKN035